Terminal Aerodrome Forecast
Issued by NWS

Home | Current Version | Previous Version | Text Only | Print | Product List | Glossary On
Versions: 1 2 3 4 5 6 7 8 9 10 11 12 13 14 15 16 17
000
FTAK31 PAJN 200113 AAB
TAFAJN
TAF AMD
PAJN 200113Z 2001/2024 00000KT 4SM -SHRA BR BKN004 OVC013
      TEMPO 2001/2004 2SM -RA BR
     FM200600 00000KT P6SM VCSH BKN015 OVC035
      TEMPO 2006/2010 3SM -FZDZ SCT004 OVC011
     FM201000 00000KT 2SM BR BKN004 OVC011
     FM201400 08003KT 3SM BR FEW004 OVC050
     FM201900 09004KT 6SM BR BKN015 OVC040=

USA.gov is the U.S. government's official web portal to all federal, state and local government web resources and services.